Williams Lake, Canada
Current Conditions -  °F | °C
As of 11:41 AM on Saturday 27 Dec 2014 (Local Time) from CYWL Reporting Station
Broken Clouds Broken Clouds  
Wind Chill: 19°   Ceiling: 10000
Heat Index: 27°   Visibility: 15mi
Dew Point: 25°   Wind: 7mph
Humidity: 93%   Direction: 140°SE
Pressure: 29.82"   Gusts: NA
Location:  52.13°N, 122.14°W
Report Text: CYWL 271941Z 14006KT 15SM FEW010 SCT045 BKN100 BKN140 M03/M04 A2982 RMK SF1SC3AC2AC1 SLP141
Loading
Personal Weather Stations






























Interactive Weather Map New forecast layout! Learn more

10-Day Weather Forecast

Advertisements
Track Severe Weather on mobile